This is the latest recevied weather packets stored in our database for station/object KH6HHG. If no packets are shown the sender has not sent any weather packets the latest 10 day(s).
| Time | Temp. | Humidity | Pressure | Rain* | Wind** | Luminosity | Snow |
|---|---|---|---|---|---|---|---|
| 1778029897 | 25° C | 76% | 1010.7 hPa | 0 mm | - | - | - |
| 1778029597 | 25° C | 75% | 1010.7 hPa | 0 mm | - | - | - |
| 1778029299 | 25.56° C | 75% | 1010.8 hPa | 0 mm | - | - | - |
| 1778028999 | 25.56° C | 74% | 1010.8 hPa | 0 mm | - | - | - |
| 1778028699 | 25.56° C | 74% | 1010.9 hPa | 0 mm | - | - | - |
| 1778028399 | 26.11° C | 73% | 1011 hPa | 0 mm | - | - | - |
| 1778028099 | 26.11° C | 72% | 1011 hPa | 0 mm | - | - | - |
| 1778027799 | 26.11° C | 73% | 1011.1 hPa | 0 mm | - | - | - |
| 1778027499 | 26.11° C | 73% | 1011.1 hPa | 0 mm | - | - | - |
| 1778027198 | 26.67° C | 70% | 1011.2 hPa | 0 mm | - | - | - |
| 1778026898 | 26.67° C | 71% | 1011.1 hPa | 0 mm | - | - | - |
| 1778026598 | 26.67° C | 70% | 1011.2 hPa | 0 mm | - | - | - |
| 1778026298 | 27.22° C | 70% | 1011.2 hPa | 0 mm | - | - | - |
| 1778025998 | 27.22° C | 69% | 1011.1 hPa | 0 mm | - | - | - |
| 1778025698 | 27.22° C | 69% | 1011.3 hPa | 0 mm | - | - | - |
| 1778025398 | 27.22° C | 66% | 1011.4 hPa | 0 mm | - | - | - |
| 1778025098 | 27.22° C | 67% | 1011.4 hPa | 0 mm | - | - | - |
| 1778024798 | 26.67° C | 70% | 1011.5 hPa | 0 mm | - | - | - |
| 1778024498 | 26.11° C | 72% | 1011.6 hPa | 0 mm | - | - | - |
| 1778024198 | 26.67° C | 71% | 1011.7 hPa | 0 mm | - | - | - |
| 1778023898 | 26.11° C | 71% | 1011.7 hPa | 0 mm | - | - | - |
| 1778023598 | 25.56° C | 70% | 1011.8 hPa | 0 mm | - | - | - |
| 1778023298 | 26.11° C | 68% | 1011.9 hPa | 0 mm | - | - | - |
| 1778022998 | 26.11° C | 70% | 1012 hPa | 0 mm | - | - | - |
| 1778022698 | 25.56° C | 71% | 1012.1 hPa | 0 mm | - | - | - |
* Rain latest hour (hover to see other rain measurements)
** Current wind speed in m/s (hover to see current wind gust speed)